sensor_id;sensor_type;location;lat;lon;timestamp;P1;durP1;ratioP1;P2;durP2;ratioP2
11279;SDS011;5696;50.928;6.960;2022-12-07T06:04:01;33.45;;;26.52;;
11279;SDS011;5696;50.928;6.960;2022-12-07T06:06:27;33.30;;;25.63;;
11279;SDS011;5696;50.928;6.960;2022-12-07T06:08:53;33.88;;;25.80;;
11279;SDS011;5696;50.928;6.960;2022-12-07T06:11:18;32.08;;;25.67;;
11279;SDS011;5696;50.928;6.960;2022-12-07T06:14:03;31.27;;;25.45;;
11279;SDS011;5696;50.928;6.960;2022-12-07T06:16:28;35.97;;;26.25;;
11279;SDS011;5696;50.928;6.960;2022-12-07T06:18:54;36.40;;;26.67;;
11279;SDS011;5696;50.928;6.960;2022-12-07T06:21:20;33.42;;;26.40;;
11279;SDS011;5696;50.928;6.960;2022-12-07T06:23:45;42.50;;;29.60;;
11279;SDS011;5696;50.928;6.960;2022-12-07T06:26:12;37.08;;;29.85;;
11279;SDS011;5696;50.928;6.960;2022-12-07T06:28:38;38.47;;;30.20;;
11279;SDS011;5696;50.928;6.960;2022-12-07T06:31:04;39.70;;;30.17;;
11279;SDS011;5696;50.928;6.960;2022-12-07T06:33:29;39.78;;;30.30;;
11279;SDS011;5696;50.928;6.960;2022-12-07T06:35:55;43.08;;;30.92;;
11279;SDS011;5696;50.928;6.960;2022-12-07T06:38:21;38.33;;;30.13;;
11279;SDS011;5696;50.928;6.960;2022-12-07T06:40:46;42.80;;;30.70;;
11279;SDS011;5696;50.928;6.960;2022-12-07T06:43:13;43.63;;;31.40;;
11279;SDS011;5696;50.928;6.960;2022-12-07T06:45:44;42.17;;;31.40;;
11279;SDS011;5696;50.928;6.960;2022-12-07T06:48:10;37.53;;;29.30;;
11279;SDS011;5696;50.928;6.960;2022-12-07T06:50:36;36.00;;;28.88;;
11279;SDS011;5696;50.928;6.960;2022-12-07T06:53:01;39.72;;;29.85;;
11279;SDS011;5696;50.928;6.960;2022-12-07T06:55:27;42.42;;;31.13;;
11279;SDS011;5696;50.928;6.960;2022-12-07T06:57:52;35.83;;;28.92;;
11279;SDS011;5696;50.928;6.960;2022-12-07T07:00:18;35.97;;;28.70;;
11279;SDS011;5696;50.928;6.960;2022-12-07T07:02:44;38.05;;;28.08;;
11279;SDS011;5696;50.928;6.960;2022-12-07T07:05:09;35.67;;;27.98;;
11279;SDS011;5696;50.928;6.960;2022-12-07T07:07:35;34.53;;;26.98;;
11279;SDS011;5696;50.928;6.960;2022-12-07T07:10:01;35.28;;;29.05;;
11279;SDS011;5696;50.928;6.960;2022-12-07T07:12:26;35.00;;;27.77;;
11279;SDS011;5696;50.928;6.960;2022-12-07T07:14:52;33.85;;;27.38;;
11279;SDS011;5696;50.928;6.960;2022-12-07T07:17:18;32.58;;;26.77;;
11279;SDS011;5696;50.928;6.960;2022-12-07T07:19:43;37.00;;;27.98;;
11279;SDS011;5696;50.928;6.960;2022-12-07T07:22:09;38.25;;;28.80;;
11279;SDS011;5696;50.928;6.960;2022-12-07T07:24:34;33.45;;;28.05;;
11279;SDS011;5696;50.928;6.960;2022-12-07T07:27:00;33.28;;;28.38;;
11279;SDS011;5696;50.928;6.960;2022-12-07T07:29:26;33.42;;;26.27;;
11279;SDS011;5696;50.928;6.960;2022-12-07T07:31:51;34.35;;;25.73;;
11279;SDS011;5696;50.928;6.960;2022-12-07T07:34:17;35.35;;;29.15;;
11279;SDS011;5696;50.928;6.960;2022-12-07T07:36:43;35.67;;;28.55;;
11279;SDS011;5696;50.928;6.960;2022-12-07T07:39:09;37.17;;;27.05;;
11279;SDS011;5696;50.928;6.960;2022-12-07T07:41:37;33.10;;;26.52;;
11279;SDS011;5696;50.928;6.960;2022-12-07T07:44:03;26.52;;;20.05;;
11279;SDS011;5696;50.928;6.960;2022-12-07T07:46:29;32.55;;;26.25;;
11279;SDS011;5696;50.928;6.960;2022-12-07T07:48:55;28.23;;;24.58;;
11279;SDS011;5696;50.928;6.960;2022-12-07T07:51:20;30.70;;;24.23;;
11279;SDS011;5696;50.928;6.960;2022-12-07T07:53:46;32.17;;;25.85;;
11279;SDS011;5696;50.928;6.960;2022-12-07T07:56:12;32.50;;;26.40;;
11279;SDS011;5696;50.928;6.960;2022-12-07T07:58:38;31.48;;;25.50;;
11279;SDS011;5696;50.928;6.960;2022-12-07T08:01:06;30.75;;;25.50;;
11279;SDS011;5696;50.928;6.960;2022-12-07T08:03:32;30.02;;;24.58;;
11279;SDS011;5696;50.928;6.960;2022-12-07T08:05:57;30.38;;;24.98;;
11279;SDS011;5696;50.928;6.960;2022-12-07T08:08:23;30.75;;;25.80;;
11279;SDS011;5696;50.928;6.960;2022-12-07T08:10:48;23.90;;;19.40;;
11279;SDS011;5696;50.928;6.960;2022-12-07T08:13:15;29.35;;;23.58;;
11279;SDS011;5696;50.928;6.960;2022-12-07T08:15:43;35.95;;;29.80;;
11279;SDS011;5696;50.928;6.960;2022-12-07T08:18:10;29.15;;;23.75;;
11279;SDS011;5696;50.928;6.960;2022-12-07T08:20:37;25.25;;;22.50;;
11279;SDS011;5696;50.928;6.960;2022-12-07T08:23:04;28.25;;;23.08;;
11279;SDS011;5696;50.928;6.960;2022-12-07T08:25:31;32.17;;;24.75;;
11279;SDS011;5696;50.928;6.960;2022-12-07T08:27:57;27.50;;;22.17;;
11279;SDS011;5696;50.928;6.960;2022-12-07T08:30:23;26.90;;;22.05;;
11279;SDS011;5696;50.928;6.960;2022-12-07T08:32:49;26.83;;;22.10;;
11279;SDS011;5696;50.928;6.960;2022-12-07T08:35:15;24.00;;;21.13;;
11279;SDS011;5696;50.928;6.960;2022-12-07T08:37:41;26.65;;;21.95;;
11279;SDS011;5696;50.928;6.960;2022-12-07T08:40:07;24.52;;;20.40;;
11279;SDS011;5696;50.928;6.960;2022-12-07T08:42:34;25.38;;;20.63;;
11279;SDS011;5696;50.928;6.960;2022-12-07T08:47:36;27.52;;;20.00;;
11279;SDS011;5696;50.928;6.960;2022-12-07T08:50:05;21.92;;;18.45;;
11279;SDS011;5696;50.928;6.960;2022-12-07T08:52:33;19.70;;;17.50;;
11279;SDS011;5696;50.928;6.960;2022-12-07T08:54:59;20.08;;;17.55;;
11279;SDS011;5696;50.928;6.960;2022-12-07T08:57:26;19.42;;;17.02;;
11279;SDS011;5696;50.928;6.960;2022-12-07T08:59:53;21.67;;;17.73;;
11279;SDS011;5696;50.928;6.960;2022-12-07T09:02:19;19.30;;;17.15;;
11279;SDS011;5696;50.928;6.960;2022-12-07T09:04:44;20.17;;;16.23;;
11279;SDS011;5696;50.928;6.960;2022-12-07T09:07:10;19.08;;;15.93;;
11279;SDS011;5696;50.928;6.960;2022-12-07T09:09:36;19.63;;;16.45;;
11279;SDS011;5696;50.928;6.960;2022-12-07T09:12:01;21.83;;;16.80;;
11279;SDS011;5696;50.928;6.960;2022-12-07T09:14:27;18.98;;;16.40;;
11279;SDS011;5696;50.928;6.960;2022-12-07T09:16:53;19.17;;;14.85;;
11279;SDS011;5696;50.928;6.960;2022-12-07T09:19:18;17.80;;;14.85;;
11279;SDS011;5696;50.928;6.960;2022-12-07T09:21:44;19.02;;;15.60;;
11279;SDS011;5696;50.928;6.960;2022-12-07T09:24:11;19.98;;;14.45;;
11279;SDS011;5696;50.928;6.960;2022-12-07T09:26:37;15.65;;;13.98;;
11279;SDS011;5696;50.928;6.960;2022-12-07T09:29:04;19.13;;;14.38;;
11279;SDS011;5696;50.928;6.960;2022-12-07T09:31:30;15.60;;;12.95;;
11279;SDS011;5696;50.928;6.960;2022-12-07T09:33:59;17.10;;;13.55;;
11279;SDS011;5696;50.928;6.960;2022-12-07T09:36:25;19.10;;;13.00;;
11279;SDS011;5696;50.928;6.960;2022-12-07T09:38:52;15.68;;;12.40;;
11279;SDS011;5696;50.928;6.960;2022-12-07T09:41:17;19.67;;;13.38;;
11279;SDS011;5696;50.928;6.960;2022-12-07T09:43:44;17.02;;;13.52;;
11279;SDS011;5696;50.928;6.960;2022-12-07T09:46:15;15.07;;;12.70;;
11279;SDS011;5696;50.928;6.960;2022-12-07T09:48:43;15.10;;;13.10;;
11279;SDS011;5696;50.928;6.960;2022-12-07T09:51:13;17.17;;;12.77;;
11279;SDS011;5696;50.928;6.960;2022-12-07T09:53:42;15.63;;;12.50;;
11279;SDS011;5696;50.928;6.960;2022-12-07T09:56:10;14.85;;;12.13;;
11279;SDS011;5696;50.928;6.960;2022-12-07T09:58:38;18.55;;;12.63;;
11279;SDS011;5696;50.928;6.960;2022-12-07T10:03:32;15.95;;;11.88;;
11279;SDS011;5696;50.928;6.960;2022-12-07T10:06:00;16.73;;;12.13;;
11279;SDS011;5696;50.928;6.960;2022-12-07T10:08:26;14.27;;;10.52;;
11279;SDS011;5696;50.928;6.960;2022-12-07T10:10:53;11.43;;;10.02;;
11279;SDS011;5696;50.928;6.960;2022-12-07T10:13:37;13.60;;;10.35;;
11279;SDS011;5696;50.928;6.960;2022-12-07T10:16:04;14.93;;;10.68;;
11279;SDS011;5696;50.928;6.960;2022-12-07T10:18:34;13.10;;;9.95;;
11279;SDS011;5696;50.928;6.960;2022-12-07T10:23:42;12.35;;;10.70;;
11279;SDS011;5696;50.928;6.960;2022-12-07T10:27:12;14.38;;;10.90;;
11279;SDS011;5696;50.928;6.960;2022-12-07T10:29:37;14.88;;;10.02;;
11279;SDS011;5696;50.928;6.960;2022-12-07T10:32:23;11.73;;;9.80;;
11279;SDS011;5696;50.928;6.960;2022-12-07T10:37:49;14.38;;;10.27;;
11279;SDS011;5696;50.928;6.960;2022-12-07T10:45:30;15.60;;;9.90;;
11279;SDS011;5696;50.928;6.960;2022-12-07T10:48:08;13.05;;;10.38;;
11279;SDS011;5696;50.928;6.960;2022-12-07T10:51:07;12.70;;;9.52;;
11279;SDS011;5696;50.928;6.960;2022-12-07T11:02:29;12.93;;;10.13;;
11279;SDS011;5696;50.928;6.960;2022-12-07T11:07:51;13.00;;;9.10;;
11279;SDS011;5696;50.928;6.960;2022-12-07T11:10:44;15.63;;;8.43;;
11279;SDS011;5696;50.928;6.960;2022-12-07T11:13:28;11.20;;;7.65;;
11279;SDS011;5696;50.928;6.960;2022-12-07T11:16:27;10.10;;;8.82;;
11279;SDS011;5696;50.928;6.960;2022-12-07T11:24:27;10.57;;;7.97;;
11279;SDS011;5696;50.928;6.960;2022-12-07T11:35:44;12.00;;;7.22;;
11279;SDS011;5696;50.928;6.960;2022-12-07T11:38:22;13.68;;;7.85;;
11279;SDS011;5696;50.928;6.960;2022-12-07T11:40:55;13.43;;;7.40;;
11279;SDS011;5696;50.928;6.960;2022-12-07T11:43:37;11.25;;;7.18;;
11279;SDS011;5696;50.928;6.960;2022-12-07T11:46:24;9.88;;;7.18;;
11279;SDS011;5696;50.928;6.960;2022-12-07T11:49:11;9.45;;;6.72;;
11279;SDS011;5696;50.928;6.960;2022-12-07T11:51:44;11.88;;;6.28;;
11279;SDS011;5696;50.928;6.960;2022-12-07T11:54:15;12.13;;;7.13;;
11279;SDS011;5696;50.928;6.960;2022-12-07T11:56:49;8.75;;;6.38;;
11279;SDS011;5696;50.928;6.960;2022-12-07T11:59:19;9.32;;;6.80;;
11279;SDS011;5696;50.928;6.960;2022-12-07T12:01:53;8.15;;;6.88;;
11279;SDS011;5696;50.928;6.960;2022-12-07T12:04:31;13.07;;;8.07;;
11279;SDS011;5696;50.928;6.960;2022-12-07T12:07:07;12.50;;;7.43;;
11279;SDS011;5696;50.928;6.960;2022-12-07T12:09:39;9.98;;;7.50;;
11279;SDS011;5696;50.928;6.960;2022-12-07T12:25:45;12.95;;;9.93;;
11279;SDS011;5696;50.928;6.960;2022-12-07T12:28:35;12.18;;;10.20;;
11279;SDS011;5696;50.928;6.960;2022-12-07T12:31:10;13.40;;;10.00;;
11279;SDS011;5696;50.928;6.960;2022-12-07T12:33:57;16.30;;;10.18;;
11279;SDS011;5696;50.928;6.960;2022-12-07T12:36:26;16.67;;;10.68;;
11279;SDS011;5696;50.928;6.960;2022-12-07T12:46:54;14.05;;;11.13;;
11279;SDS011;5696;50.928;6.960;2022-12-07T12:51:52;12.75;;;10.77;;
11279;SDS011;5696;50.928;6.960;2022-12-07T12:54:26;17.02;;;11.00;;
11279;SDS011;5696;50.928;6.960;2022-12-07T13:12:58;16.40;;;9.77;;
11279;SDS011;5696;50.928;6.960;2022-12-07T13:16:38;16.70;;;10.65;;
11279;SDS011;5696;50.928;6.960;2022-12-07T13:18:39;10.95;;;8.50;;
11279;SDS011;5696;50.928;6.960;2022-12-07T13:29:11;12.38;;;8.57;;
11279;SDS011;5696;50.928;6.960;2022-12-07T13:37:13;14.88;;;9.20;;
11279;SDS011;5696;50.928;6.960;2022-12-07T13:42:35;15.45;;;10.48;;
11279;SDS011;5696;50.928;6.960;2022-12-07T13:48:08;16.25;;;10.25;;
11279;SDS011;5696;50.928;6.960;2022-12-07T13:50:40;13.23;;;9.75;;
11279;SDS011;5696;50.928;6.960;2022-12-07T13:53:07;11.32;;;9.15;;
11279;SDS011;5696;50.928;6.960;2022-12-07T13:55:43;16.45;;;9.02;;
11279;SDS011;5696;50.928;6.960;2022-12-07T13:58:10;13.80;;;9.35;;
11279;SDS011;5696;50.928;6.960;2022-12-07T14:00:36;14.05;;;9.15;;
11279;SDS011;5696;50.928;6.960;2022-12-07T14:05:37;10.68;;;8.52;;
11279;SDS011;5696;50.928;6.960;2022-12-07T14:10:56;11.30;;;7.85;;
11279;SDS011;5696;50.928;6.960;2022-12-07T14:13:35;10.27;;;8.82;;
11279;SDS011;5696;50.928;6.960;2022-12-07T14:18:48;14.00;;;7.90;;
11279;SDS011;5696;50.928;6.960;2022-12-07T14:23:43;9.18;;;7.55;;
11279;SDS011;5696;50.928;6.960;2022-12-07T14:28:40;10.88;;;8.98;;
11279;SDS011;5696;50.928;6.960;2022-12-07T14:31:13;11.02;;;8.95;;
11279;SDS011;5696;50.928;6.960;2022-12-07T14:33:43;14.18;;;8.98;;
11279;SDS011;5696;50.928;6.960;2022-12-07T14:36:09;12.77;;;8.80;;
11279;SDS011;5696;50.928;6.960;2022-12-07T14:38:37;14.60;;;9.63;;
11279;SDS011;5696;50.928;6.960;2022-12-07T14:41:03;11.98;;;9.50;;
11279;SDS011;5696;50.928;6.960;2022-12-07T14:43:49;11.93;;;8.70;;
11279;SDS011;5696;50.928;6.960;2022-12-07T14:46:15;13.30;;;9.98;;
11279;SDS011;5696;50.928;6.960;2022-12-07T14:48:40;15.10;;;10.15;;
11279;SDS011;5696;50.928;6.960;2022-12-07T14:51:07;12.60;;;9.40;;
11279;SDS011;5696;50.928;6.960;2022-12-07T14:53:39;15.55;;;10.60;;
11279;SDS011;5696;50.928;6.960;2022-12-07T14:56:07;12.70;;;9.50;;
11279;SDS011;5696;50.928;6.960;2022-12-07T14:58:33;12.15;;;10.18;;
11279;SDS011;5696;50.928;6.960;2022-12-07T15:00:59;13.93;;;10.45;;
11279;SDS011;5696;50.928;6.960;2022-12-07T15:03:25;13.90;;;10.93;;
11279;SDS011;5696;50.928;6.960;2022-12-07T15:05:50;16.75;;;11.43;;
11279;SDS011;5696;50.928;6.960;2022-12-07T15:08:16;15.57;;;11.00;;
11279;SDS011;5696;50.928;6.960;2022-12-07T15:10:41;15.65;;;10.23;;
11279;SDS011;5696;50.928;6.960;2022-12-07T15:13:07;15.05;;;11.07;;
11279;SDS011;5696;50.928;6.960;2022-12-07T15:15:52;12.25;;;10.25;;
11279;SDS011;5696;50.928;6.960;2022-12-07T15:18:19;15.52;;;10.50;;
11279;SDS011;5696;50.928;6.960;2022-12-07T15:20:47;12.57;;;10.65;;
11279;SDS011;5696;50.928;6.960;2022-12-07T15:23:12;12.90;;;10.50;;
11279;SDS011;5696;50.928;6.960;2022-12-07T15:25:41;12.65;;;10.98;;
11279;SDS011;5696;50.928;6.960;2022-12-07T15:28:12;16.55;;;11.55;;
11279;SDS011;5696;50.928;6.960;2022-12-07T15:30:38;11.52;;;8.85;;
11279;SDS011;5696;50.928;6.960;2022-12-07T15:33:07;6.25;;;5.65;;
11279;SDS011;5696;50.928;6.960;2022-12-07T15:35:33;7.15;;;4.63;;
11279;SDS011;5696;50.928;6.960;2022-12-07T15:38:03;6.68;;;4.97;;
11279;SDS011;5696;50.928;6.960;2022-12-07T15:40:29;7.93;;;5.13;;
11279;SDS011;5696;50.928;6.960;2022-12-07T15:42:55;6.93;;;5.47;;
11279;SDS011;5696;50.928;6.960;2022-12-07T15:45:20;8.65;;;6.05;;
11279;SDS011;5696;50.928;6.960;2022-12-07T15:47:46;8.13;;;6.30;;
11279;SDS011;5696;50.928;6.960;2022-12-07T15:50:13;11.57;;;7.13;;
11279;SDS011;5696;50.928;6.960;2022-12-07T15:52:40;8.82;;;7.55;;
11279;SDS011;5696;50.928;6.960;2022-12-07T15:55:06;10.40;;;7.63;;
11279;SDS011;5696;50.928;6.960;2022-12-07T15:57:34;11.32;;;8.93;;
11279;SDS011;5696;50.928;6.960;2022-12-07T16:00:02;14.85;;;10.18;;
11279;SDS011;5696;50.928;6.960;2022-12-07T16:02:32;12.57;;;10.25;;
11279;SDS011;5696;50.928;6.960;2022-12-07T16:04:57;14.10;;;10.48;;
11279;SDS011;5696;50.928;6.960;2022-12-07T16:07:23;13.45;;;10.23;;
11279;SDS011;5696;50.928;6.960;2022-12-07T16:09:49;13.48;;;11.13;;
11279;SDS011;5696;50.928;6.960;2022-12-07T16:12:15;18.67;;;12.63;;
11279;SDS011;5696;50.928;6.960;2022-12-07T16:14:41;15.13;;;11.63;;
11279;SDS011;5696;50.928;6.960;2022-12-07T16:17:08;17.58;;;12.57;;
11279;SDS011;5696;50.928;6.960;2022-12-07T16:19:34;15.38;;;12.38;;
11279;SDS011;5696;50.928;6.960;2022-12-07T16:22:02;16.17;;;12.95;;
11279;SDS011;5696;50.928;6.960;2022-12-07T16:24:29;13.73;;;10.40;;
11279;SDS011;5696;50.928;6.960;2022-12-07T16:26:55;15.77;;;11.73;;
11279;SDS011;5696;50.928;6.960;2022-12-07T16:29:21;14.23;;;10.02;;
11279;SDS011;5696;50.928;6.960;2022-12-07T16:31:47;15.77;;;12.55;;
11279;SDS011;5696;50.928;6.960;2022-12-07T16:34:13;11.98;;;7.78;;
11279;SDS011;5696;50.928;6.960;2022-12-07T16:36:39;8.75;;;7.72;;
11279;SDS011;5696;50.928;6.960;2022-12-07T16:39:08;11.00;;;8.15;;
11279;SDS011;5696;50.928;6.960;2022-12-07T16:41:33;9.52;;;6.72;;
11279;SDS011;5696;50.928;6.960;2022-12-07T16:44:03;7.03;;;6.15;;
11279;SDS011;5696;50.928;6.960;2022-12-07T16:46:33;7.68;;;6.85;;
11279;SDS011;5696;50.928;6.960;2022-12-07T16:49:03;14.73;;;10.45;;
11279;SDS011;5696;50.928;6.960;2022-12-07T16:51:30;8.32;;;7.15;;
11279;SDS011;5696;50.928;6.960;2022-12-07T16:54:00;7.78;;;5.90;;
11279;SDS011;5696;50.928;6.960;2022-12-07T16:56:26;5.60;;;5.10;;
11279;SDS011;5696;50.928;6.960;2022-12-07T16:58:53;6.25;;;5.22;;
11279;SDS011;5696;50.928;6.960;2022-12-07T17:01:20;8.25;;;6.18;;
11279;SDS011;5696;50.928;6.960;2022-12-07T17:03:47;6.82;;;6.07;;
11279;SDS011;5696;50.928;6.960;2022-12-07T17:06:18;6.90;;;5.93;;
11279;SDS011;5696;50.928;6.960;2022-12-07T17:08:50;7.82;;;6.43;;
11279;SDS011;5696;50.928;6.960;2022-12-07T17:13:43;8.23;;;6.53;;
11279;SDS011;5696;50.928;6.960;2022-12-07T17:16:28;9.70;;;6.60;;
11279;SDS011;5696;50.928;6.960;2022-12-07T17:18:55;8.88;;;7.57;;
11279;SDS011;5696;50.928;6.960;2022-12-07T17:21:21;10.07;;;7.68;;
11279;SDS011;5696;50.928;6.960;2022-12-07T17:23:52;9.60;;;8.60;;
11279;SDS011;5696;50.928;6.960;2022-12-07T17:26:19;9.30;;;8.07;;
11279;SDS011;5696;50.928;6.960;2022-12-07T17:28:48;9.10;;;8.07;;
11279;SDS011;5696;50.928;6.960;2022-12-07T17:31:15;9.23;;;7.82;;
11279;SDS011;5696;50.928;6.960;2022-12-07T17:33:46;9.70;;;8.80;;
11279;SDS011;5696;50.928;6.960;2022-12-07T17:38:38;16.52;;;12.93;;
11279;SDS011;5696;50.928;6.960;2022-12-07T17:41:09;9.65;;;8.45;;
11279;SDS011;5696;50.928;6.960;2022-12-07T17:43:36;9.75;;;8.27;;
11279;SDS011;5696;50.928;6.960;2022-12-07T17:49:26;15.57;;;11.30;;
11279;SDS011;5696;50.928;6.960;2022-12-07T17:51:52;27.10;;;22.63;;
11279;SDS011;5696;50.928;6.960;2022-12-07T17:54:37;13.45;;;10.93;;
11279;SDS011;5696;50.928;6.960;2022-12-07T17:57:05;13.63;;;11.48;;
11279;SDS011;5696;50.928;6.960;2022-12-07T17:59:31;16.60;;;13.57;;
11279;SDS011;5696;50.928;6.960;2022-12-07T18:01:56;14.75;;;12.82;;
11279;SDS011;5696;50.928;6.960;2022-12-07T18:04:22;15.13;;;13.60;;
11279;SDS011;5696;50.928;6.960;2022-12-07T18:06:48;18.27;;;15.15;;
11279;SDS011;5696;50.928;6.960;2022-12-07T18:09:13;18.27;;;14.02;;
11279;SDS011;5696;50.928;6.960;2022-12-07T18:11:39;15.20;;;13.65;;
11279;SDS011;5696;50.928;6.960;2022-12-07T18:14:05;17.25;;;15.15;;
11279;SDS011;5696;50.928;6.960;2022-12-07T18:16:31;17.40;;;15.43;;
11279;SDS011;5696;50.928;6.960;2022-12-07T18:19:00;21.48;;;15.23;;
11279;SDS011;5696;50.928;6.960;2022-12-07T18:21:27;17.58;;;15.38;;
11279;SDS011;5696;50.928;6.960;2022-12-07T18:23:55;16.40;;;14.70;;
11279;SDS011;5696;50.928;6.960;2022-12-07T18:26:28;18.73;;;14.60;;
11279;SDS011;5696;50.928;6.960;2022-12-07T18:28:55;17.50;;;14.20;;
11279;SDS011;5696;50.928;6.960;2022-12-07T18:31:22;19.88;;;16.15;;
11279;SDS011;5696;50.928;6.960;2022-12-07T18:33:48;16.40;;;14.13;;
11279;SDS011;5696;50.928;6.960;2022-12-07T18:36:14;18.58;;;15.60;;
11279;SDS011;5696;50.928;6.960;2022-12-07T18:38:41;15.35;;;13.65;;
11279;SDS011;5696;50.928;6.960;2022-12-07T18:41:08;18.25;;;14.80;;
11279;SDS011;5696;50.928;6.960;2022-12-07T18:43:35;17.52;;;15.05;;
11279;SDS011;5696;50.928;6.960;2022-12-07T18:46:07;20.58;;;15.50;;
11279;SDS011;5696;50.928;6.960;2022-12-07T18:48:34;15.75;;;14.25;;
11279;SDS011;5696;50.928;6.960;2022-12-07T18:51:01;16.58;;;14.48;;
11279;SDS011;5696;50.928;6.960;2022-12-07T18:53:28;20.65;;;14.95;;
11279;SDS011;5696;50.928;6.960;2022-12-07T18:56:08;22.98;;;16.55;;
11279;SDS011;5696;50.928;6.960;2022-12-07T18:58:41;27.33;;;20.15;;
11279;SDS011;5696;50.928;6.960;2022-12-07T19:01:27;20.10;;;16.25;;
11279;SDS011;5696;50.928;6.960;2022-12-07T19:03:54;17.00;;;15.05;;
11279;SDS011;5696;50.928;6.960;2022-12-07T19:06:21;18.85;;;15.63;;
11279;SDS011;5696;50.928;6.960;2022-12-07T19:08:47;16.63;;;14.05;;
11279;SDS011;5696;50.928;6.960;2022-12-07T19:11:19;19.05;;;15.82;;
11279;SDS011;5696;50.928;6.960;2022-12-07T19:14:05;19.17;;;15.43;;
11279;SDS011;5696;50.928;6.960;2022-12-07T19:16:31;20.92;;;15.38;;
11279;SDS011;5696;50.928;6.960;2022-12-07T19:18:56;17.80;;;15.52;;
11279;SDS011;5696;50.928;6.960;2022-12-07T19:21:22;20.00;;;15.20;;
11279;SDS011;5696;50.928;6.960;2022-12-07T19:23:47;19.40;;;14.95;;
11279;SDS011;5696;50.928;6.960;2022-12-07T19:26:13;18.60;;;15.13;;
11279;SDS011;5696;50.928;6.960;2022-12-07T19:28:39;19.58;;;16.10;;
11279;SDS011;5696;50.928;6.960;2022-12-07T19:31:08;18.80;;;15.38;;
11279;SDS011;5696;50.928;6.960;2022-12-07T19:33:37;22.10;;;16.40;;
11279;SDS011;5696;50.928;6.960;2022-12-07T19:36:03;18.55;;;16.48;;
11279;SDS011;5696;50.928;6.960;2022-12-07T19:38:32;21.25;;;16.27;;
11279;SDS011;5696;50.928;6.960;2022-12-07T19:41:04;21.00;;;15.98;;
11279;SDS011;5696;50.928;6.960;2022-12-07T19:43:33;19.02;;;16.05;;
11279;SDS011;5696;50.928;6.960;2022-12-07T19:46:05;19.50;;;15.77;;
11279;SDS011;5696;50.928;6.960;2022-12-07T19:48:33;23.90;;;16.80;;
11279;SDS011;5696;50.928;6.960;2022-12-07T19:51:02;20.55;;;16.45;;
11279;SDS011;5696;50.928;6.960;2022-12-07T19:53:30;21.33;;;16.80;;
11279;SDS011;5696;50.928;6.960;2022-12-07T19:55:57;23.58;;;16.85;;
11279;SDS011;5696;50.928;6.960;2022-12-07T19:58:22;22.63;;;17.55;;
11279;SDS011;5696;50.928;6.960;2022-12-07T20:00:48;22.95;;;17.83;;
11279;SDS011;5696;50.928;6.960;2022-12-07T20:03:16;24.20;;;17.92;;
11279;SDS011;5696;50.928;6.960;2022-12-07T20:05:41;22.50;;;17.65;;
11279;SDS011;5696;50.928;6.960;2022-12-07T20:08:07;21.30;;;17.35;;
11279;SDS011;5696;50.928;6.960;2022-12-07T20:10:33;22.23;;;17.63;;
11279;SDS011;5696;50.928;6.960;2022-12-07T20:12:59;26.20;;;18.25;;
11279;SDS011;5696;50.928;6.960;2022-12-07T20:15:43;19.58;;;17.25;;
11279;SDS011;5696;50.928;6.960;2022-12-07T20:18:09;23.70;;;18.25;;
11279;SDS011;5696;50.928;6.960;2022-12-07T20:20:35;22.83;;;18.27;;
11279;SDS011;5696;50.928;6.960;2022-12-07T20:23:00;19.42;;;17.13;;
11279;SDS011;5696;50.928;6.960;2022-12-07T20:25:26;20.70;;;17.52;;
11279;SDS011;5696;50.928;6.960;2022-12-07T20:27:51;19.38;;;17.38;;
11279;SDS011;5696;50.928;6.960;2022-12-07T20:30:17;22.13;;;18.38;;
11279;SDS011;5696;50.928;6.960;2022-12-07T20:32:43;25.30;;;19.08;;
11279;SDS011;5696;50.928;6.960;2022-12-07T20:35:08;24.35;;;20.15;;
11279;SDS011;5696;50.928;6.960;2022-12-07T20:37:34;22.20;;;18.35;;
11279;SDS011;5696;50.928;6.960;2022-12-07T20:39:59;25.52;;;19.05;;
11279;SDS011;5696;50.928;6.960;2022-12-07T20:42:25;21.35;;;18.40;;
11279;SDS011;5696;50.928;6.960;2022-12-07T20:45:03;20.30;;;17.73;;
11279;SDS011;5696;50.928;6.960;2022-12-07T20:47:32;21.27;;;16.92;;
11279;SDS011;5696;50.928;6.960;2022-12-07T20:49:59;24.42;;;18.45;;
11279;SDS011;5696;50.928;6.960;2022-12-07T20:52:25;25.00;;;18.83;;
11279;SDS011;5696;50.928;6.960;2022-12-07T20:54:50;24.13;;;17.98;;
11279;SDS011;5696;50.928;6.960;2022-12-07T20:57:16;20.42;;;18.23;;
11279;SDS011;5696;50.928;6.960;2022-12-07T20:59:41;22.60;;;19.40;;
11279;SDS011;5696;50.928;6.960;2022-12-07T21:02:11;19.63;;;17.13;;
11279;SDS011;5696;50.928;6.960;2022-12-07T21:04:37;21.15;;;17.80;;
11279;SDS011;5696;50.928;6.960;2022-12-07T21:07:04;22.70;;;18.25;;
11279;SDS011;5696;50.928;6.960;2022-12-07T21:09:29;21.67;;;18.05;;
11279;SDS011;5696;50.928;6.960;2022-12-07T21:11:55;26.15;;;18.25;;
11279;SDS011;5696;50.928;6.960;2022-12-07T21:14:21;21.02;;;17.90;;
11279;SDS011;5696;50.928;6.960;2022-12-07T21:16:47;22.88;;;18.67;;
11279;SDS011;5696;50.928;6.960;2022-12-07T21:19:12;20.95;;;17.50;;
11279;SDS011;5696;50.928;6.960;2022-12-07T21:21:38;20.70;;;17.92;;
11279;SDS011;5696;50.928;6.960;2022-12-07T21:24:04;21.08;;;17.95;;
11279;SDS011;5696;50.928;6.960;2022-12-07T21:26:32;24.38;;;18.95;;
11279;SDS011;5696;50.928;6.960;2022-12-07T21:28:59;24.80;;;18.92;;
11279;SDS011;5696;50.928;6.960;2022-12-07T21:31:29;23.15;;;18.42;;
11279;SDS011;5696;50.928;6.960;2022-12-07T21:33:55;22.05;;;18.65;;
11279;SDS011;5696;50.928;6.960;2022-12-07T21:36:21;24.67;;;18.45;;
11279;SDS011;5696;50.928;6.960;2022-12-07T21:38:49;21.05;;;16.90;;
11279;SDS011;5696;50.928;6.960;2022-12-07T21:41:16;23.63;;;17.63;;
11279;SDS011;5696;50.928;6.960;2022-12-07T21:43:44;21.17;;;17.05;;
11279;SDS011;5696;50.928;6.960;2022-12-07T21:46:11;20.58;;;16.83;;
11279;SDS011;5696;50.928;6.960;2022-12-07T21:48:38;22.73;;;16.92;;
11279;SDS011;5696;50.928;6.960;2022-12-07T21:51:08;20.05;;;16.63;;
11279;SDS011;5696;50.928;6.960;2022-12-07T21:53:35;22.05;;;16.42;;
11279;SDS011;5696;50.928;6.960;2022-12-07T21:56:02;19.02;;;16.48;;
11279;SDS011;5696;50.928;6.960;2022-12-07T21:58:29;18.73;;;15.75;;
11279;SDS011;5696;50.928;6.960;2022-12-07T22:00:56;18.65;;;15.82;;
11279;SDS011;5696;50.928;6.960;2022-12-07T22:03:23;19.67;;;16.23;;
11279;SDS011;5696;50.928;6.960;2022-12-07T22:05:49;22.60;;;15.93;;
11279;SDS011;5696;50.928;6.960;2022-12-07T22:08:16;20.90;;;15.57;;
11279;SDS011;5696;50.928;6.960;2022-12-07T22:10:41;17.77;;;15.02;;
11279;SDS011;5696;50.928;6.960;2022-12-07T22:13:07;21.23;;;15.40;;
11279;SDS011;5696;50.928;6.960;2022-12-07T22:15:33;21.60;;;16.25;;
11279;SDS011;5696;50.928;6.960;2022-12-07T22:17:59;20.70;;;15.50;;
11279;SDS011;5696;50.928;6.960;2022-12-07T22:20:24;16.92;;;14.93;;
11279;SDS011;5696;50.928;6.960;2022-12-07T22:22:50;18.38;;;15.45;;
11279;SDS011;5696;50.928;6.960;2022-12-07T22:25:16;19.65;;;16.33;;
11279;SDS011;5696;50.928;6.960;2022-12-07T22:27:42;18.15;;;15.68;;
11279;SDS011;5696;50.928;6.960;2022-12-07T22:30:08;18.25;;;16.35;;
11279;SDS011;5696;50.928;6.960;2022-12-07T22:32:36;22.52;;;16.08;;
11279;SDS011;5696;50.928;6.960;2022-12-07T22:35:02;21.45;;;15.52;;
11279;SDS011;5696;50.928;6.960;2022-12-07T22:37:29;19.63;;;16.45;;
11279;SDS011;5696;50.928;6.960;2022-12-07T22:39:55;20.75;;;17.08;;
11279;SDS011;5696;50.928;6.960;2022-12-07T22:42:20;22.35;;;17.13;;
11279;SDS011;5696;50.928;6.960;2022-12-07T22:44:46;21.55;;;17.75;;
11279;SDS011;5696;50.928;6.960;2022-12-07T22:47:12;23.20;;;18.10;;
11279;SDS011;5696;50.928;6.960;2022-12-07T22:49:38;21.88;;;18.00;;
11279;SDS011;5696;50.928;6.960;2022-12-07T22:52:04;24.00;;;18.55;;